sensor_id;sensor_type;location;lat;lon;timestamp;P1;durP1;ratioP1;P2;durP2;ratioP2
62610;SDS011;48683;48.084;17.272;2023-04-03T00:00:59;3.25;;;2.80;;
62610;SDS011;48683;48.084;17.272;2023-04-03T00:03:25;4.95;;;3.17;;
62610;SDS011;48683;48.084;17.272;2023-04-03T00:05:50;3.78;;;2.90;;
62610;SDS011;48683;48.084;17.272;2023-04-03T00:08:16;3.53;;;2.78;;
62610;SDS011;48683;48.084;17.272;2023-04-03T00:10:41;3.13;;;2.70;;
62610;SDS011;48683;48.084;17.272;2023-04-03T00:13:07;3.83;;;3.10;;
62610;SDS011;48683;48.084;17.272;2023-04-03T00:15:34;3.33;;;2.83;;
62610;SDS011;48683;48.084;17.272;2023-04-03T00:18:00;3.25;;;2.95;;
62610;SDS011;48683;48.084;17.272;2023-04-03T00:20:26;2.95;;;2.53;;
62610;SDS011;48683;48.084;17.272;2023-04-03T00:22:52;2.70;;;2.50;;
62610;SDS011;48683;48.084;17.272;2023-04-03T00:25:18;2.83;;;2.42;;
62610;SDS011;48683;48.084;17.272;2023-04-03T00:27:43;3.10;;;2.75;;
62610;SDS011;48683;48.084;17.272;2023-04-03T00:30:09;3.85;;;2.72;;
62610;SDS011;48683;48.084;17.272;2023-04-03T00:32:37;2.63;;;2.42;;
62610;SDS011;48683;48.084;17.272;2023-04-03T00:35:03;3.25;;;2.88;;
62610;SDS011;48683;48.084;17.272;2023-04-03T00:37:30;3.00;;;2.60;;
62610;SDS011;48683;48.084;17.272;2023-04-03T00:39:55;3.13;;;2.83;;
62610;SDS011;48683;48.084;17.272;2023-04-03T00:42:21;5.10;;;3.08;;
62610;SDS011;48683;48.084;17.272;2023-04-03T00:47:12;3.35;;;3.05;;
62610;SDS011;48683;48.084;17.272;2023-04-03T00:49:40;3.58;;;3.22;;
62610;SDS011;48683;48.084;17.272;2023-04-03T00:52:07;3.65;;;2.85;;
62610;SDS011;48683;48.084;17.272;2023-04-03T00:54:35;3.40;;;3.10;;
62610;SDS011;48683;48.084;17.272;2023-04-03T00:57:01;4.03;;;3.17;;
62610;SDS011;48683;48.084;17.272;2023-04-03T00:59:30;4.45;;;3.63;;
62610;SDS011;48683;48.084;17.272;2023-04-03T01:01:58;4.38;;;3.20;;
62610;SDS011;48683;48.084;17.272;2023-04-03T01:04:31;4.77;;;3.30;;
62610;SDS011;48683;48.084;17.272;2023-04-03T01:07:18;3.38;;;3.08;;
62610;SDS011;48683;48.084;17.272;2023-04-03T01:09:47;3.63;;;3.22;;
62610;SDS011;48683;48.084;17.272;2023-04-03T01:14:55;2.88;;;2.65;;
62610;SDS011;48683;48.084;17.272;2023-04-03T01:22:49;3.67;;;2.92;;
62610;SDS011;48683;48.084;17.272;2023-04-03T01:25:23;3.50;;;2.75;;
62610;SDS011;48683;48.084;17.272;2023-04-03T01:27:49;5.28;;;3.08;;
62610;SDS011;48683;48.084;17.272;2023-04-03T01:30:16;2.40;;;2.20;;
62610;SDS011;48683;48.084;17.272;2023-04-03T01:32:42;3.42;;;2.60;;
62610;SDS011;48683;48.084;17.272;2023-04-03T01:35:08;3.60;;;2.85;;
62610;SDS011;48683;48.084;17.272;2023-04-03T01:40:00;4.80;;;2.57;;
62610;SDS011;48683;48.084;17.272;2023-04-03T01:42:26;2.97;;;2.38;;
62610;SDS011;48683;48.084;17.272;2023-04-03T01:44:51;3.10;;;2.78;;
62610;SDS011;48683;48.084;17.272;2023-04-03T01:47:16;3.20;;;2.90;;
62610;SDS011;48683;48.084;17.272;2023-04-03T01:49:42;4.03;;;2.70;;
62610;SDS011;48683;48.084;17.272;2023-04-03T01:52:07;3.35;;;3.05;;
62610;SDS011;48683;48.084;17.272;2023-04-03T01:54:33;4.45;;;3.33;;
62610;SDS011;48683;48.084;17.272;2023-04-03T01:56:58;3.50;;;3.03;;
62610;SDS011;48683;48.084;17.272;2023-04-03T01:59:23;3.50;;;3.13;;
62610;SDS011;48683;48.084;17.272;2023-04-03T02:01:49;3.40;;;3.10;;
62610;SDS011;48683;48.084;17.272;2023-04-03T02:04:14;3.72;;;3.33;;
62610;SDS011;48683;48.084;17.272;2023-04-03T02:06:39;2.97;;;2.65;;
62610;SDS011;48683;48.084;17.272;2023-04-03T02:09:05;3.72;;;3.35;;
62610;SDS011;48683;48.084;17.272;2023-04-03T02:11:31;3.25;;;2.95;;
62610;SDS011;48683;48.084;17.272;2023-04-03T02:13:56;4.43;;;3.10;;
62610;SDS011;48683;48.084;17.272;2023-04-03T02:16:21;4.10;;;2.95;;
62610;SDS011;48683;48.084;17.272;2023-04-03T02:18:47;4.57;;;3.38;;
62610;SDS011;48683;48.084;17.272;2023-04-03T02:21:12;4.10;;;3.58;;
62610;SDS011;48683;48.084;17.272;2023-04-03T02:23:37;4.63;;;3.50;;
62610;SDS011;48683;48.084;17.272;2023-04-03T02:26:04;3.50;;;3.20;;
62610;SDS011;48683;48.084;17.272;2023-04-03T02:28:34;3.88;;;3.47;;
62610;SDS011;48683;48.084;17.272;2023-04-03T02:31:00;4.38;;;2.97;;
62610;SDS011;48683;48.084;17.272;2023-04-03T02:33:25;4.95;;;3.88;;
62610;SDS011;48683;48.084;17.272;2023-04-03T02:35:54;4.20;;;3.80;;
62610;SDS011;48683;48.084;17.272;2023-04-03T02:38:21;3.42;;;3.13;;
62610;SDS011;48683;48.084;17.272;2023-04-03T02:40:47;4.20;;;3.63;;
62610;SDS011;48683;48.084;17.272;2023-04-03T02:43:12;4.85;;;3.72;;
62610;SDS011;48683;48.084;17.272;2023-04-03T02:45:37;4.97;;;3.70;;
62610;SDS011;48683;48.084;17.272;2023-04-03T02:48:03;4.72;;;3.75;;
62610;SDS011;48683;48.084;17.272;2023-04-03T02:50:28;3.92;;;3.53;;
62610;SDS011;48683;48.084;17.272;2023-04-03T02:52:54;4.97;;;3.75;;
62610;SDS011;48683;48.084;17.272;2023-04-03T02:55:19;4.70;;;4.20;;
62610;SDS011;48683;48.084;17.272;2023-04-03T02:57:45;4.10;;;3.30;;
62610;SDS011;48683;48.084;17.272;2023-04-03T03:00:10;4.88;;;4.18;;
62610;SDS011;48683;48.084;17.272;2023-04-03T03:02:36;4.45;;;3.55;;
62610;SDS011;48683;48.084;17.272;2023-04-03T03:05:01;4.35;;;3.47;;
62610;SDS011;48683;48.084;17.272;2023-04-03T03:07:27;4.70;;;3.80;;
62610;SDS011;48683;48.084;17.272;2023-04-03T03:09:52;4.55;;;3.83;;
62610;SDS011;48683;48.084;17.272;2023-04-03T03:12:17;4.85;;;3.95;;
62610;SDS011;48683;48.084;17.272;2023-04-03T03:14:46;5.20;;;4.55;;
62610;SDS011;48683;48.084;17.272;2023-04-03T03:17:12;4.18;;;3.38;;
62610;SDS011;48683;48.084;17.272;2023-04-03T03:19:38;5.38;;;3.72;;
62610;SDS011;48683;48.084;17.272;2023-04-03T03:22:03;5.00;;;3.95;;
62610;SDS011;48683;48.084;17.272;2023-04-03T03:24:28;4.88;;;3.85;;
62610;SDS011;48683;48.084;17.272;2023-04-03T03:26:54;4.38;;;3.97;;
62610;SDS011;48683;48.084;17.272;2023-04-03T03:29:19;4.63;;;3.25;;
62610;SDS011;48683;48.084;17.272;2023-04-03T03:31:45;5.63;;;3.50;;
62610;SDS011;48683;48.084;17.272;2023-04-03T03:34:10;3.28;;;2.97;;
62610;SDS011;48683;48.084;17.272;2023-04-03T03:36:36;3.65;;;2.83;;
62610;SDS011;48683;48.084;17.272;2023-04-03T03:39:01;3.53;;;3.22;;
62610;SDS011;48683;48.084;17.272;2023-04-03T03:41:26;3.50;;;3.20;;
62610;SDS011;48683;48.084;17.272;2023-04-03T03:43:52;3.05;;;2.80;;
62610;SDS011;48683;48.084;17.272;2023-04-03T03:46:17;4.70;;;3.17;;
62610;SDS011;48683;48.084;17.272;2023-04-03T03:48:43;4.53;;;3.28;;
62610;SDS011;48683;48.084;17.272;2023-04-03T03:51:08;4.20;;;3.22;;
62610;SDS011;48683;48.084;17.272;2023-04-03T03:53:33;3.63;;;3.33;;
62610;SDS011;48683;48.084;17.272;2023-04-03T03:55:59;4.93;;;3.05;;
62610;SDS011;48683;48.084;17.272;2023-04-03T03:58:25;3.97;;;3.28;;
62610;SDS011;48683;48.084;17.272;2023-04-03T04:00:50;5.75;;;4.20;;
62610;SDS011;48683;48.084;17.272;2023-04-03T04:03:15;4.53;;;3.60;;
62610;SDS011;48683;48.084;17.272;2023-04-03T04:05:41;5.05;;;4.20;;
62610;SDS011;48683;48.084;17.272;2023-04-03T04:08:06;6.65;;;4.03;;
62610;SDS011;48683;48.084;17.272;2023-04-03T04:10:31;3.67;;;3.30;;
62610;SDS011;48683;48.084;17.272;2023-04-03T04:12:57;5.97;;;4.22;;
62610;SDS011;48683;48.084;17.272;2023-04-03T04:15:23;5.43;;;4.70;;
62610;SDS011;48683;48.084;17.272;2023-04-03T04:20:15;4.63;;;4.17;;
62610;SDS011;48683;48.084;17.272;2023-04-03T04:22:41;5.55;;;4.35;;
62610;SDS011;48683;48.084;17.272;2023-04-03T04:25:06;7.20;;;4.95;;
62610;SDS011;48683;48.084;17.272;2023-04-03T04:27:32;6.47;;;5.07;;
62610;SDS011;48683;48.084;17.272;2023-04-03T04:29:57;8.27;;;4.82;;
62610;SDS011;48683;48.084;17.272;2023-04-03T04:32:22;5.82;;;4.88;;
62610;SDS011;48683;48.084;17.272;2023-04-03T04:34:48;6.97;;;5.20;;
62610;SDS011;48683;48.084;17.272;2023-04-03T04:37:13;11.02;;;6.07;;
62610;SDS011;48683;48.084;17.272;2023-04-03T04:39:38;6.53;;;5.10;;
62610;SDS011;48683;48.084;17.272;2023-04-03T04:42:04;7.30;;;4.97;;
62610;SDS011;48683;48.084;17.272;2023-04-03T04:44:29;7.82;;;5.57;;
62610;SDS011;48683;48.084;17.272;2023-04-03T04:46:55;6.60;;;5.03;;
62610;SDS011;48683;48.084;17.272;2023-04-03T04:49:20;7.80;;;6.03;;
62610;SDS011;48683;48.084;17.272;2023-04-03T04:51:45;7.13;;;4.78;;
62610;SDS011;48683;48.084;17.272;2023-04-03T04:54:11;5.95;;;5.15;;
62610;SDS011;48683;48.084;17.272;2023-04-03T04:56:36;6.15;;;4.55;;
62610;SDS011;48683;48.084;17.272;2023-04-03T04:59:02;7.32;;;5.15;;
62610;SDS011;48683;48.084;17.272;2023-04-03T05:01:27;7.60;;;5.40;;
62610;SDS011;48683;48.084;17.272;2023-04-03T05:03:52;8.88;;;5.20;;
62610;SDS011;48683;48.084;17.272;2023-04-03T05:06:18;8.73;;;5.32;;
62610;SDS011;48683;48.084;17.272;2023-04-03T05:08:43;6.22;;;4.97;;
62610;SDS011;48683;48.084;17.272;2023-04-03T05:11:09;6.65;;;4.65;;
62610;SDS011;48683;48.084;17.272;2023-04-03T05:13:34;8.07;;;5.70;;
62610;SDS011;48683;48.084;17.272;2023-04-03T05:16:00;8.00;;;5.15;;
62610;SDS011;48683;48.084;17.272;2023-04-03T05:18:25;7.13;;;4.85;;
62610;SDS011;48683;48.084;17.272;2023-04-03T05:20:51;7.70;;;4.85;;
62610;SDS011;48683;48.084;17.272;2023-04-03T05:23:16;7.15;;;4.78;;
62610;SDS011;48683;48.084;17.272;2023-04-03T05:25:42;5.88;;;4.53;;
62610;SDS011;48683;48.084;17.272;2023-04-03T05:28:10;7.55;;;5.47;;
62610;SDS011;48683;48.084;17.272;2023-04-03T05:30:36;6.38;;;4.38;;
62610;SDS011;48683;48.084;17.272;2023-04-03T05:33:01;6.10;;;3.55;;
62610;SDS011;48683;48.084;17.272;2023-04-03T05:35:27;6.70;;;5.03;;
62610;SDS011;48683;48.084;17.272;2023-04-03T05:37:52;7.63;;;4.82;;
62610;SDS011;48683;48.084;17.272;2023-04-03T05:40:18;6.97;;;5.35;;
62610;SDS011;48683;48.084;17.272;2023-04-03T05:42:43;5.00;;;4.30;;
62610;SDS011;48683;48.084;17.272;2023-04-03T05:45:09;5.72;;;4.20;;
62610;SDS011;48683;48.084;17.272;2023-04-03T05:47:34;4.70;;;3.63;;
62610;SDS011;48683;48.084;17.272;2023-04-03T05:50:00;6.35;;;4.45;;
62610;SDS011;48683;48.084;17.272;2023-04-03T05:52:29;7.55;;;4.80;;
62610;SDS011;48683;48.084;17.272;2023-04-03T05:54:57;5.25;;;4.50;;
62610;SDS011;48683;48.084;17.272;2023-04-03T05:57:22;8.25;;;4.30;;
62610;SDS011;48683;48.084;17.272;2023-04-03T05:59:48;8.23;;;4.35;;
62610;SDS011;48683;48.084;17.272;2023-04-03T06:02:15;5.63;;;3.83;;
62610;SDS011;48683;48.084;17.272;2023-04-03T06:04:42;5.40;;;3.47;;
62610;SDS011;48683;48.084;17.272;2023-04-03T06:07:09;5.38;;;4.15;;
62610;SDS011;48683;48.084;17.272;2023-04-03T06:09:37;7.68;;;4.20;;
62610;SDS011;48683;48.084;17.272;2023-04-03T06:12:02;7.03;;;4.40;;
62610;SDS011;48683;48.084;17.272;2023-04-03T06:14:28;5.38;;;4.13;;
62610;SDS011;48683;48.084;17.272;2023-04-03T06:16:53;7.22;;;4.40;;
62610;SDS011;48683;48.084;17.272;2023-04-03T06:19:19;5.18;;;3.83;;
62610;SDS011;48683;48.084;17.272;2023-04-03T06:21:45;6.50;;;4.10;;
62610;SDS011;48683;48.084;17.272;2023-04-03T06:24:12;6.72;;;4.13;;
62610;SDS011;48683;48.084;17.272;2023-04-03T06:26:39;7.90;;;4.93;;
62610;SDS011;48683;48.084;17.272;2023-04-03T06:29:04;6.93;;;4.35;;
62610;SDS011;48683;48.084;17.272;2023-04-03T06:31:30;6.85;;;4.60;;
62610;SDS011;48683;48.084;17.272;2023-04-03T06:33:55;6.28;;;4.68;;
62610;SDS011;48683;48.084;17.272;2023-04-03T06:36:21;7.22;;;4.50;;
62610;SDS011;48683;48.084;17.272;2023-04-03T06:38:47;6.45;;;4.55;;
62610;SDS011;48683;48.084;17.272;2023-04-03T06:41:12;5.57;;;4.25;;
62610;SDS011;48683;48.084;17.272;2023-04-03T06:43:38;6.72;;;4.60;;
62610;SDS011;48683;48.084;17.272;2023-04-03T06:46:03;6.18;;;4.15;;
62610;SDS011;48683;48.084;17.272;2023-04-03T06:48:29;4.70;;;4.13;;
62610;SDS011;48683;48.084;17.272;2023-04-03T06:50:54;7.00;;;4.68;;
62610;SDS011;48683;48.084;17.272;2023-04-03T06:53:20;5.47;;;4.40;;
62610;SDS011;48683;48.084;17.272;2023-04-03T06:55:46;8.00;;;4.68;;
62610;SDS011;48683;48.084;17.272;2023-04-03T06:58:12;7.93;;;4.20;;
62610;SDS011;48683;48.084;17.272;2023-04-03T07:00:38;7.10;;;3.75;;
62610;SDS011;48683;48.084;17.272;2023-04-03T07:03:04;5.25;;;3.22;;
62610;SDS011;48683;48.084;17.272;2023-04-03T07:05:29;5.30;;;3.88;;
62610;SDS011;48683;48.084;17.272;2023-04-03T07:07:55;4.23;;;3.37;;
62610;SDS011;48683;48.084;17.272;2023-04-03T07:10:21;5.30;;;4.03;;
62610;SDS011;48683;48.084;17.272;2023-04-03T07:12:46;4.93;;;3.60;;
62610;SDS011;48683;48.084;17.272;2023-04-03T07:15:11;5.20;;;3.33;;
62610;SDS011;48683;48.084;17.272;2023-04-03T07:17:38;4.00;;;3.28;;
62610;SDS011;48683;48.084;17.272;2023-04-03T07:20:03;6.57;;;3.88;;
62610;SDS011;48683;48.084;17.272;2023-04-03T07:22:29;4.57;;;3.20;;
62610;SDS011;48683;48.084;17.272;2023-04-03T07:24:55;4.65;;;3.15;;
62610;SDS011;48683;48.084;17.272;2023-04-03T07:27:20;4.20;;;3.00;;
62610;SDS011;48683;48.084;17.272;2023-04-03T07:29:46;5.22;;;3.08;;
62610;SDS011;48683;48.084;17.272;2023-04-03T07:34:38;4.43;;;3.27;;
62610;SDS011;48683;48.084;17.272;2023-04-03T07:37:04;5.30;;;3.25;;
62610;SDS011;48683;48.084;17.272;2023-04-03T07:39:29;3.25;;;2.30;;
62610;SDS011;48683;48.084;17.272;2023-04-03T07:41:55;3.53;;;2.60;;
62610;SDS011;48683;48.084;17.272;2023-04-03T07:44:21;3.50;;;3.00;;
62610;SDS011;48683;48.084;17.272;2023-04-03T07:46:46;3.97;;;2.17;;
62610;SDS011;48683;48.084;17.272;2023-04-03T07:49:13;3.75;;;2.58;;
62610;SDS011;48683;48.084;17.272;2023-04-03T07:51:39;5.93;;;2.50;;
62610;SDS011;48683;48.084;17.272;2023-04-03T07:54:04;5.35;;;1.98;;
62610;SDS011;48683;48.084;17.272;2023-04-03T07:56:30;5.05;;;2.70;;
62610;SDS011;48683;48.084;17.272;2023-04-03T07:58:55;2.90;;;1.95;;
62610;SDS011;48683;48.084;17.272;2023-04-03T08:01:20;3.17;;;2.35;;
62610;SDS011;48683;48.084;17.272;2023-04-03T08:03:46;2.70;;;1.85;;
62610;SDS011;48683;48.084;17.272;2023-04-03T08:06:12;2.25;;;1.73;;
62610;SDS011;48683;48.084;17.272;2023-04-03T08:08:40;3.92;;;2.30;;
62610;SDS011;48683;48.084;17.272;2023-04-03T08:11:05;3.10;;;2.10;;
62610;SDS011;48683;48.084;17.272;2023-04-03T08:13:31;3.50;;;2.67;;
62610;SDS011;48683;48.084;17.272;2023-04-03T08:15:57;3.22;;;2.03;;
62610;SDS011;48683;48.084;17.272;2023-04-03T08:18:24;4.70;;;2.58;;
62610;SDS011;48683;48.084;17.272;2023-04-03T08:20:51;3.28;;;2.35;;
62610;SDS011;48683;48.084;17.272;2023-04-03T08:23:17;3.58;;;2.20;;
62610;SDS011;48683;48.084;17.272;2023-04-03T08:25:43;7.72;;;2.05;;
62610;SDS011;48683;48.084;17.272;2023-04-03T08:28:10;5.70;;;2.58;;
62610;SDS011;48683;48.084;17.272;2023-04-03T08:30:38;2.38;;;2.15;;
62610;SDS011;48683;48.084;17.272;2023-04-03T08:33:05;5.28;;;2.72;;
62610;SDS011;48683;48.084;17.272;2023-04-03T08:35:31;5.80;;;2.90;;
62610;SDS011;48683;48.084;17.272;2023-04-03T08:37:56;4.00;;;3.17;;
62610;SDS011;48683;48.084;17.272;2023-04-03T08:40:22;3.33;;;2.40;;
62610;SDS011;48683;48.084;17.272;2023-04-03T08:50:47;2.33;;;2.13;;
62610;SDS011;48683;48.084;17.272;2023-04-03T08:53:14;2.60;;;2.10;;
62610;SDS011;48683;48.084;17.272;2023-04-03T08:55:43;7.68;;;2.13;;
62610;SDS011;48683;48.084;17.272;2023-04-03T08:58:23;2.70;;;2.15;;
62610;SDS011;48683;48.084;17.272;2023-04-03T09:00:57;4.28;;;2.90;;
62610;SDS011;48683;48.084;17.272;2023-04-03T09:03:28;4.70;;;2.95;;
62610;SDS011;48683;48.084;17.272;2023-04-03T09:17:58;5.65;;;2.45;;
62610;SDS011;48683;48.084;17.272;2023-04-03T09:24:28;3.95;;;2.63;;
62610;SDS011;48683;48.084;17.272;2023-04-03T09:26:29;3.10;;;2.17;;
62610;SDS011;48683;48.084;17.272;2023-04-03T09:29:00;4.38;;;2.60;;
62610;SDS011;48683;48.084;17.272;2023-04-03T09:31:31;3.95;;;2.40;;
62610;SDS011;48683;48.084;17.272;2023-04-03T09:34:09;3.17;;;2.00;;
62610;SDS011;48683;48.084;17.272;2023-04-03T09:36:50;3.92;;;2.03;;
62610;SDS011;48683;48.084;17.272;2023-04-03T09:39:18;2.30;;;2.10;;
62610;SDS011;48683;48.084;17.272;2023-04-03T09:47:18;3.10;;;2.40;;
62610;SDS011;48683;48.084;17.272;2023-04-03T09:49:44;7.55;;;1.90;;
62610;SDS011;48683;48.084;17.272;2023-04-03T09:52:19;7.97;;;2.33;;
62610;SDS011;48683;48.084;17.272;2023-04-03T09:54:47;3.03;;;2.40;;
62610;SDS011;48683;48.084;17.272;2023-04-03T09:57:13;6.18;;;2.50;;
62610;SDS011;48683;48.084;17.272;2023-04-03T09:59:46;5.35;;;2.53;;
62610;SDS011;48683;48.084;17.272;2023-04-03T10:02:40;2.80;;;2.55;;
62610;SDS011;48683;48.084;17.272;2023-04-03T10:05:28;5.80;;;2.30;;
62610;SDS011;48683;48.084;17.272;2023-04-03T10:08:07;4.27;;;3.13;;
62610;SDS011;48683;48.084;17.272;2023-04-03T10:10:34;3.97;;;2.55;;
62610;SDS011;48683;48.084;17.272;2023-04-03T10:13:17;3.40;;;2.60;;
62610;SDS011;48683;48.084;17.272;2023-04-03T10:15:50;3.83;;;2.60;;
62610;SDS011;48683;48.084;17.272;2023-04-03T10:18:27;3.65;;;2.80;;
62610;SDS011;48683;48.084;17.272;2023-04-03T10:21:57;3.60;;;2.80;;
62610;SDS011;48683;48.084;17.272;2023-04-03T10:29:51;3.92;;;3.17;;
62610;SDS011;48683;48.084;17.272;2023-04-03T10:35:03;4.00;;;2.50;;
62610;SDS011;48683;48.084;17.272;2023-04-03T10:52:20;3.58;;;2.42;;
62610;SDS011;48683;48.084;17.272;2023-04-03T10:57:38;5.15;;;2.95;;
62610;SDS011;48683;48.084;17.272;2023-04-03T11:00:06;3.40;;;2.90;;
62610;SDS011;48683;48.084;17.272;2023-04-03T11:02:48;5.60;;;2.92;;
62610;SDS011;48683;48.084;17.272;2023-04-03T11:08:33;3.10;;;2.80;;
62610;SDS011;48683;48.084;17.272;2023-04-03T11:11:00;3.85;;;2.92;;
62610;SDS011;48683;48.084;17.272;2023-04-03T11:13:38;3.38;;;3.08;;
62610;SDS011;48683;48.084;17.272;2023-04-03T11:16:08;4.45;;;3.28;;
62610;SDS011;48683;48.084;17.272;2023-04-03T11:18:46;5.22;;;2.90;;
62610;SDS011;48683;48.084;17.272;2023-04-03T11:21:19;4.10;;;2.97;;
62610;SDS011;48683;48.084;17.272;2023-04-03T11:23:49;6.13;;;3.15;;
62610;SDS011;48683;48.084;17.272;2023-04-03T11:26:18;5.07;;;3.38;;
62610;SDS011;48683;48.084;17.272;2023-04-03T11:28:46;4.88;;;3.33;;
62610;SDS011;48683;48.084;17.272;2023-04-03T11:34:26;3.47;;;3.13;;
62610;SDS011;48683;48.084;17.272;2023-04-03T11:37:10;4.25;;;3.25;;
62610;SDS011;48683;48.084;17.272;2023-04-03T11:39:40;4.15;;;2.92;;
62610;SDS011;48683;48.084;17.272;2023-04-03T11:44:46;5.82;;;3.35;;
62610;SDS011;48683;48.084;17.272;2023-04-03T11:47:12;4.63;;;3.28;;
62610;SDS011;48683;48.084;17.272;2023-04-03T11:50:30;5.68;;;3.55;;
62610;SDS011;48683;48.084;17.272;2023-04-03T12:16:19;5.75;;;3.08;;
62610;SDS011;48683;48.084;17.272;2023-04-03T12:21:14;3.97;;;3.10;;
62610;SDS011;48683;48.084;17.272;2023-04-03T12:24:00;3.60;;;3.25;;
62610;SDS011;48683;48.084;17.272;2023-04-03T12:26:30;4.75;;;3.70;;
62610;SDS011;48683;48.084;17.272;2023-04-03T12:28:59;5.45;;;3.88;;
62610;SDS011;48683;48.084;17.272;2023-04-03T12:31:38;8.77;;;3.77;;
62610;SDS011;48683;48.084;17.272;2023-04-03T12:36:42;4.35;;;3.80;;
62610;SDS011;48683;48.084;17.272;2023-04-03T12:41:53;7.70;;;3.88;;
62610;SDS011;48683;48.084;17.272;2023-04-03T12:47:23;4.40;;;4.00;;
62610;SDS011;48683;48.084;17.272;2023-04-03T12:49:52;4.20;;;3.80;;
62610;SDS011;48683;48.084;17.272;2023-04-03T12:54:53;4.05;;;3.20;;
62610;SDS011;48683;48.084;17.272;2023-04-03T12:57:19;5.78;;;3.60;;
62610;SDS011;48683;48.084;17.272;2023-04-03T12:59:45;5.25;;;3.85;;
62610;SDS011;48683;48.084;17.272;2023-04-03T13:04:46;4.97;;;3.35;;
62610;SDS011;48683;48.084;17.272;2023-04-03T13:07:45;4.47;;;3.40;;
62610;SDS011;48683;48.084;17.272;2023-04-03T13:12:34;4.22;;;3.55;;
62610;SDS011;48683;48.084;17.272;2023-04-03T13:15:29;7.37;;;3.53;;
62610;SDS011;48683;48.084;17.272;2023-04-03T13:17:56;4.13;;;3.10;;
62610;SDS011;48683;48.084;17.272;2023-04-03T13:20:28;6.22;;;2.88;;
62610;SDS011;48683;48.084;17.272;2023-04-03T13:22:58;4.43;;;2.92;;
62610;SDS011;48683;48.084;17.272;2023-04-03T13:25:27;4.55;;;3.55;;
62610;SDS011;48683;48.084;17.272;2023-04-03T13:27:56;4.78;;;2.90;;
62610;SDS011;48683;48.084;17.272;2023-04-03T13:30:25;3.83;;;2.83;;
62610;SDS011;48683;48.084;17.272;2023-04-03T13:33:03;4.85;;;2.78;;
62610;SDS011;48683;48.084;17.272;2023-04-03T13:35:33;4.10;;;3.00;;
62610;SDS011;48683;48.084;17.272;2023-04-03T13:38:01;4.50;;;3.00;;
62610;SDS011;48683;48.084;17.272;2023-04-03T13:40:30;3.33;;;2.67;;
62610;SDS011;48683;48.084;17.272;2023-04-03T13:43:00;3.47;;;2.55;;
62610;SDS011;48683;48.084;17.272;2023-04-03T13:45:28;3.53;;;2.60;;
62610;SDS011;48683;48.084;17.272;2023-04-03T13:48:15;4.45;;;2.33;;
62610;SDS011;48683;48.084;17.272;2023-04-03T13:50:52;4.05;;;2.28;;
62610;SDS011;48683;48.084;17.272;2023-04-03T13:53:20;2.92;;;2.17;;
62610;SDS011;48683;48.084;17.272;2023-04-03T13:56:00;2.65;;;2.40;;
62610;SDS011;48683;48.084;17.272;2023-04-03T13:58:33;3.42;;;2.60;;
62610;SDS011;48683;48.084;17.272;2023-04-03T14:03:47;2.10;;;1.90;;
62610;SDS011;48683;48.084;17.272;2023-04-03T14:06:16;3.85;;;2.08;;
62610;SDS011;48683;48.084;17.272;2023-04-03T14:08:42;2.33;;;1.90;;
62610;SDS011;48683;48.084;17.272;2023-04-03T14:11:16;3.85;;;2.33;;
62610;SDS011;48683;48.084;17.272;2023-04-03T14:13:44;3.38;;;2.50;;
62610;SDS011;48683;48.084;17.272;2023-04-03T14:18:41;4.63;;;2.40;;
62610;SDS011;48683;48.084;17.272;2023-04-03T14:21:09;3.90;;;2.22;;
62610;SDS011;48683;48.084;17.272;2023-04-03T14:23:37;5.10;;;2.10;;
62610;SDS011;48683;48.084;17.272;2023-04-03T14:26:02;2.47;;;1.65;;
62610;SDS011;48683;48.084;17.272;2023-04-03T14:28:30;2.88;;;1.85;;
62610;SDS011;48683;48.084;17.272;2023-04-03T14:30:56;1.73;;;1.60;;
62610;SDS011;48683;48.084;17.272;2023-04-03T14:33:22;2.83;;;1.70;;
62610;SDS011;48683;48.084;17.272;2023-04-03T14:35:47;1.98;;;1.67;;
62610;SDS011;48683;48.084;17.272;2023-04-03T14:38:27;2.60;;;1.80;;
62610;SDS011;48683;48.084;17.272;2023-04-03T14:40:54;2.83;;;1.83;;
62610;SDS011;48683;48.084;17.272;2023-04-03T14:43:20;6.55;;;2.10;;
62610;SDS011;48683;48.084;17.272;2023-04-03T14:45:47;2.80;;;2.07;;
62610;SDS011;48683;48.084;17.272;2023-04-03T14:48:20;1.93;;;1.50;;
62610;SDS011;48683;48.084;17.272;2023-04-03T14:50:48;2.90;;;1.60;;
62610;SDS011;48683;48.084;17.272;2023-04-03T14:53:15;3.75;;;2.28;;
62610;SDS011;48683;48.084;17.272;2023-04-03T14:55:42;2.22;;;1.70;;
62610;SDS011;48683;48.084;17.272;2023-04-03T14:58:14;2.80;;;1.63;;
62610;SDS011;48683;48.084;17.272;2023-04-03T15:00:40;2.50;;;1.88;;
62610;SDS011;48683;48.084;17.272;2023-04-03T15:03:09;5.57;;;2.15;;
62610;SDS011;48683;48.084;17.272;2023-04-03T15:05:37;2.25;;;1.73;;
62610;SDS011;48683;48.084;17.272;2023-04-03T15:08:03;3.63;;;1.85;;
62610;SDS011;48683;48.084;17.272;2023-04-03T15:10:29;3.47;;;1.55;;
62610;SDS011;48683;48.084;17.272;2023-04-03T15:12:55;2.78;;;2.00;;
62610;SDS011;48683;48.084;17.272;2023-04-03T15:15:22;4.60;;;1.38;;
62610;SDS011;48683;48.084;17.272;2023-04-03T15:17:52;3.55;;;2.03;;
62610;SDS011;48683;48.084;17.272;2023-04-03T15:20:22;4.88;;;1.95;;
62610;SDS011;48683;48.084;17.272;2023-04-03T15:22:49;3.92;;;1.98;;
62610;SDS011;48683;48.084;17.272;2023-04-03T15:25:15;3.17;;;1.55;;
62610;SDS011;48683;48.084;17.272;2023-04-03T15:27:41;2.42;;;1.70;;
62610;SDS011;48683;48.084;17.272;2023-04-03T15:30:07;3.25;;;1.90;;
62610;SDS011;48683;48.084;17.272;2023-04-03T15:32:37;4.00;;;1.88;;
62610;SDS011;48683;48.084;17.272;2023-04-03T15:35:03;8.90;;;2.30;;
62610;SDS011;48683;48.084;17.272;2023-04-03T15:37:29;2.75;;;2.00;;
62610;SDS011;48683;48.084;17.272;2023-04-03T15:39:54;2.65;;;1.80;;
62610;SDS011;48683;48.084;17.272;2023-04-03T15:42:20;2.20;;;1.60;;
62610;SDS011;48683;48.084;17.272;2023-04-03T15:44:45;5.35;;;1.83;;
62610;SDS011;48683;48.084;17.272;2023-04-03T15:47:11;3.25;;;1.73;;
62610;SDS011;48683;48.084;17.272;2023-04-03T15:49:36;6.93;;;2.33;;
62610;SDS011;48683;48.084;17.272;2023-04-03T15:52:02;3.80;;;1.83;;
62610;SDS011;48683;48.084;17.272;2023-04-03T15:54:28;3.22;;;1.85;;
62610;SDS011;48683;48.084;17.272;2023-04-03T15:56:54;3.65;;;2.25;;
62610;SDS011;48683;48.084;17.272;2023-04-03T15:59:20;4.35;;;1.88;;
62610;SDS011;48683;48.084;17.272;2023-04-03T16:01:46;4.18;;;2.40;;
62610;SDS011;48683;48.084;17.272;2023-04-03T16:04:12;2.30;;;1.50;;
62610;SDS011;48683;48.084;17.272;2023-04-03T16:06:38;4.85;;;2.30;;
62610;SDS011;48683;48.084;17.272;2023-04-03T16:09:04;3.38;;;1.90;;
62610;SDS011;48683;48.084;17.272;2023-04-03T16:11:30;2.40;;;1.50;;
62610;SDS011;48683;48.084;17.272;2023-04-03T16:13:55;4.90;;;1.75;;
62610;SDS011;48683;48.084;17.272;2023-04-03T16:16:21;5.55;;;2.08;;
62610;SDS011;48683;48.084;17.272;2023-04-03T16:18:48;2.60;;;1.67;;
62610;SDS011;48683;48.084;17.272;2023-04-03T16:21:14;2.45;;;1.52;;
62610;SDS011;48683;48.084;17.272;2023-04-03T16:23:41;2.92;;;1.83;;
62610;SDS011;48683;48.084;17.272;2023-04-03T16:26:06;3.13;;;1.77;;
62610;SDS011;48683;48.084;17.272;2023-04-03T16:28:33;2.40;;;2.00;;
62610;SDS011;48683;48.084;17.272;2023-04-03T16:30:59;4.32;;;2.00;;
62610;SDS011;48683;48.084;17.272;2023-04-03T16:33:25;2.15;;;1.67;;
62610;SDS011;48683;48.084;17.272;2023-04-03T16:35:51;3.47;;;1.90;;
62610;SDS011;48683;48.084;17.272;2023-04-03T16:38:17;3.28;;;1.40;;
62610;SDS011;48683;48.084;17.272;2023-04-03T16:40:44;4.38;;;2.35;;
62610;SDS011;48683;48.084;17.272;2023-04-03T16:43:10;3.75;;;2.00;;
62610;SDS011;48683;48.084;17.272;2023-04-03T16:45:35;4.70;;;2.17;;